createdAt,value
2022-11-22T05:40:29.866Z,81.41
2022-11-22T05:42:57.694Z,81.44
2022-11-22T05:45:44.407Z,81.06
2022-11-22T05:48:31.138Z,81.20
2022-11-22T05:51:17.836Z,81.32
2022-11-22T05:54:05.213Z,81.26
2022-11-22T05:56:52.071Z,81.33
2022-11-22T05:59:43.930Z,81.00
2022-11-22T06:02:31.188Z,80.97
2022-11-22T06:05:17.970Z,81.31
2022-11-22T06:08:05.351Z,81.36
2022-11-22T06:10:52.138Z,81.22
2022-11-22T06:13:38.831Z,81.49
2022-11-22T06:16:27.319Z,81.34
2022-11-22T06:19:14.239Z,81.02
2022-11-22T06:22:00.962Z,81.43
2022-11-22T06:24:47.881Z,81.61
2022-11-22T06:27:34.584Z,81.54
2022-11-22T06:30:21.307Z,81.33
2022-11-22T06:33:08.052Z,80.61
2022-11-22T06:35:54.744Z,81.23
2022-11-22T06:38:41.472Z,81.29
2022-11-22T06:41:30.952Z,81.19
2022-11-22T06:44:17.715Z,81.40
2022-11-22T06:47:04.406Z,81.50
2022-11-22T06:49:51.130Z,81.45
2022-11-22T06:52:37.852Z,81.23
2022-11-22T06:55:49.137Z,81.41
2022-11-22T06:58:31.641Z,81.89
2022-11-22T07:01:30.534Z,81.36
2022-11-22T07:04:19.175Z,81.43
2022-11-22T07:07:07.257Z,81.33
2022-11-22T07:09:56.600Z,81.42
2022-11-22T07:12:43.472Z,81.16
2022-11-22T07:15:30.826Z,81.27
2022-11-22T07:18:17.619Z,81.21
2022-11-22T07:21:09.384Z,81.26
2022-11-22T07:24:00.738Z,81.13
2022-11-22T07:26:47.940Z,81.25
2022-11-22T07:29:34.626Z,80.98
2022-11-22T07:32:21.359Z,81.11
2022-11-22T07:35:08.403Z,81.10
2022-11-22T07:37:55.108Z,81.04
2022-11-22T07:40:41.803Z,80.87
2022-11-22T07:43:28.576Z,81.28
2022-11-22T07:46:22.515Z,81.22
2022-11-22T07:49:09.954Z,81.15
2022-11-22T07:51:56.636Z,80.88
2022-11-22T07:54:43.343Z,81.18
2022-11-22T07:57:30.075Z,81.10
2022-11-22T08:00:16.774Z,81.18
2022-11-22T08:03:03.546Z,81.06
2022-11-22T08:05:50.326Z,81.17
2022-11-22T08:08:37.035Z,80.88
2022-11-22T08:11:25.131Z,81.04
2022-11-22T08:14:11.945Z,80.86
2022-11-22T08:16:58.688Z,81.20
2022-11-22T08:19:45.392Z,81.06
2022-11-22T08:22:32.096Z,81.22
2022-11-22T08:25:18.798Z,80.95
2022-11-22T08:28:05.486Z,80.78
2022-11-22T08:30:52.227Z,81.04
2022-11-22T08:33:38.922Z,81.16
2022-11-22T08:36:26.347Z,81.14
2022-11-22T08:39:13.358Z,81.42
2022-11-22T08:42:00.054Z,81.03
2022-11-22T08:44:46.768Z,80.59
2022-11-22T08:47:33.568Z,80.79
2022-11-22T08:50:20.273Z,80.74
2022-11-22T08:53:06.992Z,80.95
2022-11-22T08:55:53.714Z,81.13
2022-11-22T08:58:40.706Z,80.74
2022-11-22T09:01:38.970Z,80.96
2022-11-22T09:04:25.793Z,80.86
2022-11-22T09:10:19.388Z,80.78
2022-11-22T09:13:06.623Z,80.76
2022-11-22T09:15:53.462Z,80.71
2022-11-22T09:18:40.382Z,80.50
2022-11-22T09:21:35.507Z,80.66
2022-11-22T09:24:22.222Z,80.48
2022-11-22T09:27:08.999Z,80.63
2022-11-22T09:29:55.722Z,80.85
2022-11-22T09:32:42.544Z,80.63
2022-11-22T09:35:29.430Z,80.70
2022-11-22T09:38:16.139Z,80.71
2022-11-22T09:41:06.789Z,80.55
2022-11-22T09:43:56.231Z,80.45
2022-11-22T09:46:55.143Z,80.87
2022-11-22T09:50:12.601Z,80.57
2022-11-22T09:53:24.668Z,80.60
2022-11-22T09:56:16.069Z,80.69
2022-11-22T09:59:09.367Z,80.42
2022-11-22T10:02:11.582Z,80.38
2022-11-22T10:05:11.644Z,80.67
2022-11-22T10:08:03.204Z,80.47
2022-11-22T10:11:01.115Z,80.52
2022-11-22T10:13:55.550Z,80.52
2022-11-22T10:16:54.735Z,80.46
2022-11-22T10:19:59.608Z,80.49
2022-11-22T10:22:49.793Z,80.33
2022-11-22T10:25:41.555Z,80.60
2022-11-22T10:28:53.920Z,80.34
2022-11-22T10:31:40.581Z,80.49
2022-11-22T10:35:04.848Z,80.44
2022-11-22T10:38:16.013Z,80.61
2022-11-22T10:41:17.967Z,80.23
2022-11-22T10:44:46.043Z,80.78
2022-11-22T10:47:38.258Z,80.60
2022-11-22T10:51:15.653Z,80.36
2022-11-22T10:54:33.382Z,80.41
2022-11-22T10:57:47.991Z,80.43
2022-11-22T11:00:46.467Z,80.22
2022-11-22T11:03:57.478Z,80.18
2022-11-22T11:10:26.402Z,80.05
2022-11-22T11:13:27.483Z,80.38
2022-11-22T11:16:17.694Z,80.76
2022-11-22T11:19:14.444Z,80.25
2022-11-22T11:22:01.248Z,80.49
2022-11-22T11:24:51.529Z,80.46
2022-11-22T11:27:40.839Z,80.66
2022-11-22T11:30:31.694Z,80.82
2022-11-22T11:33:18.397Z,80.63
2022-11-22T11:36:05.428Z,80.57
2022-11-22T11:39:01.380Z,80.46
2022-11-22T11:41:53.755Z,80.57
2022-11-22T11:44:48.038Z,80.66
2022-11-22T11:47:40.263Z,80.69
2022-11-22T11:50:39.100Z,80.55
2022-11-22T11:53:44.814Z,80.60
2022-11-22T11:56:48.651Z,80.68
2022-11-22T11:59:42.363Z,80.59
2022-11-22T12:02:43.767Z,80.57
2022-11-22T12:05:33.631Z,80.39
2022-11-22T12:08:21.331Z,80.55
2022-11-22T12:11:24.237Z,80.85
2022-11-22T12:14:20.369Z,80.35
2022-11-22T12:17:09.445Z,80.59
2022-11-22T12:20:02.241Z,80.74
2022-11-22T12:23:02.326Z,80.38
2022-11-22T12:25:59.694Z,80.53
2022-11-22T12:28:48.811Z,80.80
2022-11-22T12:31:59.591Z,80.85
2022-11-22T12:34:54.426Z,79.96
2022-11-22T12:37:51.410Z,80.83
2022-11-22T12:40:45.042Z,80.59
2022-11-22T12:43:46.293Z,81.21
2022-11-22T12:47:01.860Z,80.71
2022-11-22T12:49:58.543Z,80.58
2022-11-22T12:53:01.828Z,80.79
2022-11-22T12:55:56.771Z,80.62
2022-11-22T12:58:58.387Z,80.92
2022-11-22T13:01:52.860Z,80.38
2022-11-22T13:04:45.928Z,80.45
2022-11-22T13:07:45.574Z,80.72
2022-11-22T13:10:45.035Z,80.95
2022-11-22T13:13:52.317Z,80.79
2022-11-22T13:16:39.112Z,80.71
2022-11-22T13:19:28.275Z,80.54
2022-11-22T13:22:36.329Z,80.57
2022-11-22T13:25:41.539Z,80.61
2022-11-22T13:28:38.452Z,80.54
2022-11-22T13:31:25.403Z,80.52
2022-11-22T13:34:17.846Z,80.58
2022-11-22T13:37:06.942Z,80.61
2022-11-22T13:39:58.924Z,80.63
2022-11-22T13:42:48.276Z,80.62
2022-11-22T13:45:45.119Z,80.75
2022-11-22T13:48:31.889Z,80.85
2022-11-22T13:51:19.879Z,80.89
2022-11-22T13:54:07.861Z,80.40
2022-11-22T13:57:00.477Z,80.93
2022-11-22T13:59:47.274Z,80.91
2022-11-22T14:02:43.856Z,80.42
2022-11-22T14:05:52.150Z,80.20
2022-11-22T14:08:55.769Z,80.55
2022-11-22T14:12:04.598Z,80.39
2022-11-22T14:15:26.535Z,80.83
2022-11-22T14:18:36.439Z,80.24
2022-11-22T14:21:37.325Z,80.71
2022-11-22T14:24:42.082Z,80.20
2022-11-22T14:28:10.005Z,80.49
2022-11-22T14:31:17.420Z,80.27
2022-11-22T14:34:36.899Z,80.76
2022-11-22T14:37:32.764Z,80.60
2022-11-22T14:40:28.518Z,80.29
2022-11-22T14:43:18.730Z,80.22
2022-11-22T14:46:52.815Z,80.35
2022-11-22T14:49:52.578Z,80.12
2022-11-22T14:52:45.674Z,80.46
2022-11-22T14:55:38.848Z,80.28
2022-11-22T14:58:31.722Z,80.19
2022-11-22T15:01:56.618Z,80.11
2022-11-22T15:09:15.571Z,80.26
2022-11-22T15:09:20.788Z,80.10
2022-11-22T15:11:53.414Z,80.57
2022-11-22T15:14:42.857Z,80.36
2022-11-22T15:58:51.230Z,80.33
2022-11-22T16:01:38.924Z,80.02
2022-11-22T16:04:25.720Z,80.55
2022-11-22T16:07:12.503Z,80.31
2022-11-22T16:09:59.986Z,80.17
2022-11-22T16:12:56.179Z,80.25
2022-11-22T16:15:58.952Z,80.58
2022-11-22T16:18:47.814Z,80.29
2022-11-22T16:21:37.250Z,80.36
2022-11-22T16:24:37.335Z,80.33
2022-11-22T16:27:32.664Z,81.16
2022-11-22T16:30:23.592Z,80.32
2022-11-22T16:33:10.916Z,80.27
2022-11-22T16:35:58.363Z,80.36
2022-11-22T16:38:46.215Z,80.22
2022-11-22T16:41:39.812Z,80.62
2022-11-22T16:44:31.517Z,80.10
2022-11-22T16:47:18.453Z,80.47
2022-11-22T16:50:06.252Z,80.54
2022-11-22T16:52:53.091Z,80.67
2022-11-22T16:55:40.817Z,80.55
2022-11-22T16:58:36.072Z,80.44
2022-11-22T17:01:22.991Z,80.56
2022-11-22T17:04:13.130Z,80.60
2022-11-22T17:06:59.890Z,80.66
2022-11-22T17:09:46.622Z,80.57
2022-11-22T17:12:42.316Z,80.50
2022-11-22T17:15:30.549Z,80.65
2022-11-22T17:18:17.268Z,80.78
2022-11-22T17:21:04.481Z,80.20
2022-11-22T17:23:54.620Z,79.98
2022-11-22T17:26:41.533Z,80.22
2022-11-22T17:29:49.435Z,80.22
2022-11-22T17:32:34.999Z,79.81
2022-11-22T17:35:21.706Z,80.11
2022-11-22T17:38:12.649Z,79.90
2022-11-22T17:40:59.408Z,80.23
2022-11-22T17:43:46.263Z,79.97
2022-11-22T17:46:32.971Z,80.33
2022-11-22T17:49:21.764Z,80.52
2022-11-22T17:52:08.519Z,80.46
2022-11-22T17:54:55.657Z,80.40
2022-11-22T17:57:44.129Z,80.40
2022-11-22T18:00:31.387Z,80.41
2022-11-22T18:03:18.122Z,80.20
2022-11-22T18:06:04.914Z,80.49
2022-11-22T18:08:52.911Z,79.85
2022-11-22T18:11:39.711Z,80.37
2022-11-22T18:14:26.426Z,79.79
2022-11-22T18:17:13.229Z,80.11
2022-11-22T18:20:00.187Z,80.48
2022-11-22T18:22:47.323Z,80.31
2022-11-22T18:25:34.173Z,79.87
2022-11-22T18:28:20.884Z,80.04
2022-11-22T18:31:07.621Z,80.43
2022-11-22T18:33:54.415Z,80.38
2022-11-22T18:36:57.520Z,79.73
2022-11-22T18:39:50.852Z,80.37
2022-11-22T18:42:37.684Z,79.68
2022-11-22T18:45:25.184Z,80.40
2022-11-22T18:48:11.887Z,79.90
2022-11-22T18:50:58.593Z,80.42
2022-11-22T18:53:45.329Z,80.18
2022-11-22T18:56:34.186Z,80.14
2022-11-22T18:59:20.961Z,80.08
2022-11-22T19:02:07.934Z,80.13
2022-11-22T19:04:54.714Z,80.32
2022-11-22T19:07:42.024Z,80.24
2022-11-22T19:10:29.330Z,80.00
2022-11-22T19:13:16.084Z,79.77
2022-11-22T19:16:02.884Z,80.11
2022-11-22T19:18:49.610Z,79.99
2022-11-22T19:21:38.688Z,79.76
2022-11-22T19:24:25.779Z,79.83
2022-11-22T19:27:12.543Z,80.29
2022-11-22T19:29:59.337Z,80.16
2022-11-22T19:32:46.103Z,79.87
2022-11-22T19:35:32.899Z,80.07
2022-11-22T19:38:19.615Z,79.85
2022-11-22T19:41:06.371Z,79.76
2022-11-22T19:43:53.114Z,79.67
2022-11-22T19:46:40.036Z,79.58
2022-11-22T19:49:26.868Z,79.73
2022-11-22T19:52:13.584Z,79.87
2022-11-22T19:55:00.286Z,79.83
2022-11-22T19:57:46.981Z,79.80
2022-11-22T20:00:34.312Z,80.20
2022-11-22T20:03:21.061Z,79.97
2022-11-22T20:06:07.782Z,79.73
2022-11-22T20:08:55.240Z,80.08
2022-11-22T20:11:41.941Z,80.04
2022-11-22T20:14:29.780Z,79.67
2022-11-22T20:17:16.749Z,79.52
2022-11-22T20:20:03.476Z,79.89
2022-11-22T20:22:50.243Z,80.03
2022-11-22T20:25:36.999Z,79.77
2022-11-22T20:28:23.769Z,79.85
2022-11-22T20:31:10.596Z,79.78
2022-11-22T20:33:59.953Z,79.70
2022-11-22T20:36:52.171Z,79.76
2022-11-22T20:39:38.867Z,79.79
2022-11-22T20:42:34.085Z,79.97
2022-11-22T20:45:21.685Z,79.87
2022-11-22T20:48:08.446Z,79.78
2022-11-22T20:50:55.147Z,79.89
2022-11-22T20:53:41.890Z,79.71
2022-11-22T20:56:29.267Z,79.50
2022-11-22T20:59:16.073Z,79.43
2022-11-22T21:02:06.353Z,79.53
2022-11-22T21:04:55.863Z,79.38
2022-11-22T21:07:42.701Z,79.42
2022-11-22T21:10:29.608Z,79.33
2022-11-22T21:13:16.339Z,79.31
2022-11-22T21:16:08.866Z,79.10
2022-11-22T21:19:11.382Z,79.34
2022-11-22T21:21:58.401Z,79.84
2022-11-22T21:24:45.122Z,79.26
2022-11-22T21:27:31.875Z,79.53
2022-11-22T21:30:18.645Z,79.53
2022-11-22T21:33:05.376Z,79.25
2022-11-22T21:35:52.119Z,79.77
2022-11-22T21:38:41.963Z,79.27
2022-11-22T21:41:40.238Z,79.35
2022-11-22T21:44:27.854Z,79.03
2022-11-22T21:47:14.663Z,79.28
2022-11-22T21:50:01.437Z,79.49
2022-11-22T21:52:48.149Z,79.06
2022-11-22T21:55:34.959Z,79.51
2022-11-22T21:58:21.750Z,79.64
2022-11-22T22:01:14.073Z,79.86
2022-11-22T22:04:01.332Z,78.85
2022-11-22T22:06:48.044Z,79.05
2022-11-22T22:09:34.803Z,78.75
2022-11-22T22:12:21.496Z,79.78
2022-11-22T22:15:08.235Z,78.92
2022-11-22T22:17:54.986Z,78.82
2022-11-22T22:20:42.937Z,79.66
2022-11-22T22:23:29.647Z,79.61
2022-11-22T22:26:20.996Z,79.36
2022-11-22T22:29:07.745Z,79.23
2022-11-22T22:31:35.668Z,79.32
2022-11-22T22:34:22.375Z,78.88
2022-11-22T22:37:09.099Z,79.67
2022-11-22T22:39:55.835Z,79.33
2022-11-22T22:42:42.578Z,78.64
2022-11-22T22:45:29.855Z,78.63
2022-11-22T22:48:16.561Z,78.30
2022-11-22T22:51:03.351Z,78.91
2022-11-22T22:53:50.664Z,78.73
2022-11-22T22:56:39.266Z,79.38
2022-11-22T22:59:26.010Z,78.96
2022-11-22T23:01:52.947Z,79.23
2022-11-22T23:04:39.736Z,79.88
2022-11-22T23:07:26.610Z,79.29
2022-11-22T23:10:13.422Z,78.67
2022-11-22T23:13:00.209Z,78.76
2022-11-22T23:15:57.954Z,78.55
2022-11-22T23:18:45.729Z,80.07
2022-11-22T23:21:35.085Z,79.05
2022-11-22T23:24:22.151Z,79.78
2022-11-22T23:27:09.167Z,78.83
2022-11-22T23:29:55.951Z,78.82
2022-11-22T23:32:42.882Z,79.20
2022-11-22T23:35:29.807Z,79.70
2022-11-22T23:38:16.604Z,78.57
2022-11-22T23:41:03.384Z,79.13
2022-11-22T23:43:50.339Z,78.57
2022-11-22T23:46:37.147Z,79.61
2022-11-22T23:49:24.923Z,79.56
2022-11-22T23:52:11.738Z,79.10
2022-11-22T23:54:58.519Z,79.99
2022-11-22T23:57:48.342Z,79.71
